Saint Stephens Church, Virginia
Current Conditions -  °F | °C
As of 11:15 AM on Sunday 25 Jan 2015 (Local Time) from KXSA Reporting Station
Clear Clear  
Wind Chill: 44°   Ceiling: Unl
Heat Index: 47°   Visibility: 10mi
Dew Point: 30°   Wind: 7mph
Humidity: 53%   Direction: 190°S
Pressure: 29.91"   Gusts: NA
Location:  37.81°N, 77.07°W
Report Text: KXSA 251615Z AUTO 19006KT 10SM CLR 08/M01 A2991 RMK AO2 T00831009
Loading
Personal Weather Stations






























Interactive Weather Map New forecast layout! Learn more

10-Day Weather Forecast

Advertisements
Track Severe Weather on mobile